createdAt,value
2017-01-31T00:00:15.326Z,21.77
2017-01-31T00:00:55.887Z,21.77
2017-01-31T00:01:36.454Z,21.8
2017-01-31T00:03:50.731Z,21.78
2017-01-31T00:04:31.264Z,21.75
2017-01-31T00:05:11.809Z,21.78
2017-01-31T00:05:52.338Z,21.78
2017-01-31T00:06:32.851Z,21.74
2017-01-31T00:07:13.433Z,21.77
2017-01-31T00:07:53.990Z,21.8
2017-01-31T00:08:34.564Z,21.77
2017-01-31T00:09:15.030Z,21.78
2017-01-31T00:09:55.619Z,21.75
2017-01-31T00:10:36.179Z,21.74
2017-01-31T00:11:16.743Z,21.78
2017-01-31T00:11:57.287Z,21.78
2017-01-31T00:12:37.806Z,21.72
2017-01-31T00:13:18.351Z,21.8
2017-01-31T00:13:58.887Z,21.78
2017-01-31T00:14:39.415Z,21.72
2017-01-31T00:15:20.063Z,21.78
2017-01-31T00:16:00.662Z,21.75
2017-01-31T00:16:41.241Z,21.74
2017-01-31T00:17:21.833Z,21.81
2017-01-31T00:18:02.411Z,21.77
2017-01-31T00:18:42.961Z,21.72
2017-01-31T00:19:23.523Z,21.75
2017-01-31T00:20:04.095Z,21.8
2017-01-31T00:20:44.629Z,21.77
2017-01-31T00:21:25.235Z,21.81
2017-01-31T00:22:05.833Z,21.72
2017-01-31T00:22:46.392Z,21.78
2017-01-31T00:23:26.960Z,21.77
2017-01-31T00:24:07.545Z,21.78
2017-01-31T00:24:48.106Z,21.84
2017-01-31T00:25:28.661Z,21.75
2017-01-31T00:26:09.194Z,21.72
2017-01-31T00:26:49.762Z,21.74
2017-01-31T00:27:30.332Z,21.8
2017-01-31T00:28:10.882Z,21.75
2017-01-31T00:28:51.462Z,21.83
2017-01-31T00:29:31.961Z,21.72
2017-01-31T00:30:12.692Z,21.81
2017-01-31T00:30:53.232Z,21.78
2017-01-31T00:31:33.810Z,21.69
2017-01-31T00:32:14.326Z,21.74
2017-01-31T00:32:54.832Z,21.78
2017-01-31T00:33:35.366Z,21.74
2017-01-31T00:34:15.947Z,21.75
2017-01-31T00:34:56.509Z,21.77
2017-01-31T00:35:37.097Z,21.74
2017-01-31T00:36:17.710Z,21.72
2017-01-31T00:36:58.278Z,21.75
2017-01-31T00:37:38.816Z,21.74
2017-01-31T00:38:19.324Z,21.75
2017-01-31T00:38:59.871Z,21.74
2017-01-31T00:39:40.429Z,21.77
2017-01-31T00:40:21.004Z,21.75
2017-01-31T00:41:01.540Z,21.72
2017-01-31T00:41:42.074Z,21.77
2017-01-31T00:42:22.592Z,21.74
2017-01-31T00:43:03.139Z,21.75
2017-01-31T00:43:43.684Z,21.74
2017-01-31T00:44:24.242Z,21.78
2017-01-31T00:45:04.790Z,21.8
2017-01-31T00:45:45.331Z,21.75
2017-01-31T00:46:25.928Z,21.78
2017-01-31T00:47:06.486Z,21.78
2017-01-31T00:47:47.009Z,21.77
2017-01-31T00:48:27.590Z,21.75
2017-01-31T00:49:08.165Z,21.75
2017-01-31T00:49:48.694Z,21.78
2017-01-31T00:50:29.359Z,21.75
2017-01-31T00:51:09.924Z,21.74
2017-01-31T00:51:50.480Z,21.7
2017-01-31T00:52:31.038Z,21.8
2017-01-31T00:53:11.589Z,21.75
2017-01-31T00:53:52.124Z,21.8
2017-01-31T00:54:32.747Z,21.72
2017-01-31T00:55:13.316Z,21.75
2017-01-31T00:55:53.863Z,21.78
2017-01-31T00:56:34.386Z,21.75
2017-01-31T00:57:14.905Z,21.74
2017-01-31T00:57:55.474Z,21.69
2017-01-31T00:58:35.996Z,21.74
2017-01-31T00:59:16.539Z,21.72
2017-01-31T00:59:57.072Z,21.75
2017-01-31T01:00:37.614Z,21.72
2017-01-31T01:01:18.247Z,21.69
2017-01-31T01:01:58.782Z,21.7
2017-01-31T01:02:39.309Z,21.7
2017-01-31T01:03:20.062Z,21.72
2017-01-31T01:04:00.486Z,21.74
2017-01-31T01:04:41.020Z,21.72
2017-01-31T01:05:21.578Z,21.69
2017-01-31T01:06:02.208Z,21.75
2017-01-31T01:06:42.845Z,21.72
2017-01-31T01:07:23.371Z,21.77
2017-01-31T01:08:03.929Z,21.74
2017-01-31T01:08:44.470Z,21.74
2017-01-31T01:09:25.095Z,21.72
2017-01-31T01:10:05.785Z,21.77
2017-01-31T01:10:46.279Z,21.74
2017-01-31T01:11:26.813Z,21.75
2017-01-31T01:12:07.479Z,21.77
2017-01-31T01:12:48.016Z,21.7
2017-01-31T01:13:28.612Z,21.69
2017-01-31T01:14:09.141Z,21.75
2017-01-31T01:14:49.754Z,21.75
2017-01-31T01:15:30.316Z,21.7
2017-01-31T01:16:10.842Z,21.7
2017-01-31T01:16:51.399Z,21.72
2017-01-31T01:17:31.974Z,21.7
2017-01-31T01:18:12.439Z,21.74
2017-01-31T01:18:52.966Z,21.68
2017-01-31T01:19:33.499Z,21.74
2017-01-31T01:20:14.060Z,21.74
2017-01-31T01:20:54.606Z,21.7
2017-01-31T01:21:35.178Z,21.72
2017-01-31T01:22:15.721Z,21.74
2017-01-31T01:22:56.276Z,21.75
2017-01-31T01:23:36.958Z,21.75
2017-01-31T01:24:17.513Z,21.74
2017-01-31T01:24:58.099Z,21.74
2017-01-31T01:25:38.617Z,21.75
2017-01-31T01:26:19.222Z,21.78
2017-01-31T01:26:59.775Z,21.77
2017-01-31T01:27:40.308Z,21.74
2017-01-31T01:28:20.852Z,21.75
2017-01-31T01:29:01.496Z,21.78
2017-01-31T01:29:42.055Z,21.74
2017-01-31T01:30:22.577Z,21.74
2017-01-31T01:31:03.138Z,21.7
2017-01-31T01:31:43.727Z,21.66
2017-01-31T01:32:24.239Z,21.69
2017-01-31T01:33:04.804Z,21.74
2017-01-31T01:33:45.328Z,21.75
2017-01-31T01:34:25.849Z,21.69
2017-01-31T01:35:06.382Z,21.69
2017-01-31T01:35:46.896Z,21.74
2017-01-31T01:36:27.461Z,21.74
2017-01-31T01:37:07.994Z,21.74
2017-01-31T01:37:48.551Z,21.74
2017-01-31T01:38:29.065Z,21.69
2017-01-31T01:39:09.608Z,21.74
2017-01-31T01:39:50.134Z,21.77
2017-01-31T01:40:30.689Z,21.69
2017-01-31T01:41:11.260Z,21.7
2017-01-31T01:41:51.782Z,21.78
2017-01-31T01:42:32.305Z,21.66
2017-01-31T01:43:12.840Z,21.69
2017-01-31T01:43:53.388Z,21.75
2017-01-31T01:44:33.963Z,21.74
2017-01-31T01:45:14.477Z,21.75
2017-01-31T01:45:55.014Z,21.72
2017-01-31T01:46:35.558Z,21.72
2017-01-31T01:47:16.092Z,21.7
2017-01-31T01:47:56.639Z,21.7
2017-01-31T01:48:37.165Z,21.74
2017-01-31T01:49:17.742Z,21.68
2017-01-31T01:49:58.286Z,21.74
2017-01-31T01:50:38.812Z,21.66
2017-01-31T01:51:19.395Z,21.7
2017-01-31T01:51:59.947Z,21.7
2017-01-31T01:52:40.496Z,21.69
2017-01-31T01:53:21.017Z,21.69
2017-01-31T01:54:01.561Z,21.75
2017-01-31T01:54:42.104Z,21.7
2017-01-31T01:55:22.674Z,21.7
2017-01-31T01:56:03.236Z,21.74
2017-01-31T01:56:43.805Z,21.68
2017-01-31T01:57:24.359Z,21.72
2017-01-31T01:58:04.899Z,21.7
2017-01-31T01:58:45.507Z,21.69
2017-01-31T01:59:26.083Z,21.7
2017-01-31T02:00:06.608Z,21.69
2017-01-31T02:00:47.155Z,21.75
2017-01-31T02:01:27.664Z,21.7
2017-01-31T02:02:08.189Z,21.7
2017-01-31T02:02:48.708Z,21.7
2017-01-31T02:03:29.260Z,21.72
2017-01-31T02:04:09.779Z,21.7
2017-01-31T02:04:50.333Z,21.68
2017-01-31T02:05:30.831Z,21.69
2017-01-31T02:06:11.371Z,21.66
2017-01-31T02:06:51.912Z,21.74
2017-01-31T02:07:32.480Z,21.68
2017-01-31T02:08:13.011Z,21.66
2017-01-31T02:08:53.624Z,21.69
2017-01-31T02:09:34.180Z,21.65
2017-01-31T02:10:14.724Z,21.74
2017-01-31T02:10:55.267Z,21.69
2017-01-31T02:11:35.818Z,21.74
2017-01-31T02:12:16.309Z,21.75
2017-01-31T02:12:56.837Z,21.56
2017-01-31T02:13:37.390Z,21.62
2017-01-31T02:14:17.988Z,21.62
2017-01-31T02:14:58.539Z,21.6
2017-01-31T02:15:39.079Z,21.58
2017-01-31T02:16:19.597Z,21.65
2017-01-31T02:17:00.133Z,21.62
2017-01-31T02:17:40.675Z,21.65
2017-01-31T02:18:21.236Z,21.72
2017-01-31T02:19:01.762Z,21.63
2017-01-31T02:19:42.325Z,21.7
2017-01-31T02:20:22.854Z,21.69
2017-01-31T02:21:03.384Z,21.59
2017-01-31T02:21:43.936Z,21.74
2017-01-31T02:22:24.508Z,21.69
2017-01-31T02:23:05.034Z,21.69
2017-01-31T02:23:45.541Z,21.74
2017-01-31T02:24:26.059Z,21.6
2017-01-31T02:25:06.576Z,21.77
2017-01-31T02:25:47.117Z,21.75
2017-01-31T02:26:27.680Z,21.59
2017-01-31T02:27:08.174Z,21.66
2017-01-31T02:27:48.736Z,21.66
2017-01-31T02:28:29.272Z,21.65
2017-01-31T02:29:09.798Z,21.6
2017-01-31T02:29:50.341Z,21.75
2017-01-31T02:30:30.928Z,21.7
2017-01-31T02:31:11.414Z,21.7
2017-01-31T02:31:51.957Z,21.72
2017-01-31T02:32:32.490Z,21.68
2017-01-31T02:33:13.034Z,21.72
2017-01-31T02:33:53.560Z,21.69
2017-01-31T02:34:34.098Z,21.7
2017-01-31T02:35:14.616Z,21.72
2017-01-31T02:35:55.150Z,21.72
2017-01-31T02:36:35.691Z,21.68
2017-01-31T02:37:16.219Z,21.7
2017-01-31T02:37:56.772Z,21.68
2017-01-31T02:38:37.360Z,21.74
2017-01-31T02:39:17.899Z,21.68
2017-01-31T02:39:58.431Z,21.6
2017-01-31T02:40:38.989Z,21.7
2017-01-31T02:41:19.516Z,21.66
2017-01-31T02:42:00.061Z,21.72
2017-01-31T02:42:40.559Z,21.74
2017-01-31T02:43:21.102Z,21.68
2017-01-31T02:44:01.623Z,21.74
2017-01-31T02:44:42.132Z,21.62
2017-01-31T02:45:22.678Z,21.7
2017-01-31T02:46:03.215Z,21.7
2017-01-31T02:46:43.775Z,21.7
2017-01-31T02:47:24.298Z,21.62
2017-01-31T02:48:04.828Z,21.7
2017-01-31T02:48:45.365Z,21.65
2017-01-31T02:49:25.885Z,21.72
2017-01-31T02:50:06.453Z,21.74
2017-01-31T02:50:47.002Z,21.59
2017-01-31T02:51:27.622Z,21.62
2017-01-31T02:52:08.153Z,21.63
2017-01-31T02:52:48.706Z,21.63
2017-01-31T02:53:29.266Z,21.58
2017-01-31T02:54:09.805Z,21.74
2017-01-31T02:54:50.349Z,21.7
2017-01-31T02:55:30.887Z,21.68
2017-01-31T02:56:11.464Z,21.72
2017-01-31T02:56:52.025Z,21.63
2017-01-31T02:57:32.559Z,21.72
2017-01-31T02:58:13.112Z,21.63
2017-01-31T02:58:53.669Z,21.62
2017-01-31T02:59:34.228Z,21.6
2017-01-31T03:00:14.811Z,21.58
2017-01-31T03:00:55.386Z,21.66
2017-01-31T03:01:35.915Z,21.59
2017-01-31T03:02:16.459Z,21.62
2017-01-31T03:02:57.000Z,21.62
2017-01-31T03:03:37.533Z,21.66
2017-01-31T03:04:18.072Z,21.65
2017-01-31T03:04:58.642Z,21.56
2017-01-31T03:05:39.171Z,21.58
2017-01-31T03:06:19.723Z,21.6
2017-01-31T03:07:00.270Z,21.59
2017-01-31T03:07:40.824Z,21.63
2017-01-31T03:08:21.373Z,21.63
2017-01-31T03:09:01.917Z,21.68
2017-01-31T03:09:42.498Z,21.63
2017-01-31T03:10:23.038Z,21.59
2017-01-31T03:11:03.578Z,21.59
2017-01-31T03:11:44.111Z,21.62
2017-01-31T03:12:24.684Z,21.66
2017-01-31T03:13:05.246Z,21.65
2017-01-31T03:13:45.798Z,21.6
2017-01-31T03:14:26.333Z,21.63
2017-01-31T03:15:06.884Z,21.7
2017-01-31T03:15:47.431Z,21.6
2017-01-31T03:16:27.969Z,21.7
2017-01-31T03:17:08.524Z,21.59
2017-01-31T03:17:49.073Z,21.63
2017-01-31T03:18:29.688Z,21.63
2017-01-31T03:19:10.207Z,21.62
2017-01-31T03:19:50.736Z,21.69
2017-01-31T03:20:31.302Z,21.6
2017-01-31T03:21:11.849Z,21.6
2017-01-31T03:21:52.413Z,21.63
2017-01-31T03:22:32.967Z,21.62
2017-01-31T03:23:13.489Z,21.68
2017-01-31T03:23:54.035Z,21.59
2017-01-31T03:24:34.613Z,21.62
2017-01-31T03:25:15.163Z,21.66
2017-01-31T03:25:55.700Z,21.63
2017-01-31T03:26:36.250Z,21.62
2017-01-31T03:27:16.799Z,21.6
2017-01-31T03:27:57.392Z,21.59
2017-01-31T03:28:37.939Z,21.66
2017-01-31T03:29:18.456Z,21.62
2017-01-31T03:29:59.015Z,21.62
2017-01-31T03:30:39.567Z,21.66
2017-01-31T03:31:20.106Z,21.63
2017-01-31T03:32:00.607Z,21.6
2017-01-31T03:32:41.167Z,21.59
2017-01-31T03:33:21.697Z,21.6
2017-01-31T03:34:02.219Z,21.63
2017-01-31T03:34:42.746Z,21.62
2017-01-31T03:35:23.318Z,21.62
2017-01-31T03:36:03.822Z,21.62
2017-01-31T03:36:44.421Z,21.62
2017-01-31T03:37:24.979Z,21.66
2017-01-31T03:38:05.522Z,21.68
2017-01-31T03:38:46.068Z,21.69
2017-01-31T03:39:26.614Z,21.56
2017-01-31T03:40:07.161Z,21.62
2017-01-31T03:40:47.716Z,21.6
2017-01-31T03:41:28.260Z,21.59
2017-01-31T03:42:08.808Z,21.63
2017-01-31T03:42:49.391Z,21.66
2017-01-31T03:43:29.906Z,21.7
2017-01-31T03:44:10.420Z,21.63
2017-01-31T03:44:50.971Z,21.65
2017-01-31T03:45:31.517Z,21.69
2017-01-31T03:46:12.061Z,21.6
2017-01-31T03:46:52.627Z,21.69
2017-01-31T03:47:33.173Z,21.63
2017-01-31T03:48:13.714Z,21.66
2017-01-31T03:48:54.237Z,21.63
2017-01-31T03:49:34.769Z,21.62
2017-01-31T03:50:15.299Z,21.7
2017-01-31T03:50:55.860Z,21.74
2017-01-31T03:51:36.410Z,21.72
2017-01-31T03:52:16.948Z,21.62
2017-01-31T03:52:57.543Z,21.66
2017-01-31T03:53:38.073Z,21.62
2017-01-31T03:54:18.629Z,21.6
2017-01-31T03:54:59.215Z,21.6
2017-01-31T03:55:39.777Z,21.7
2017-01-31T03:56:20.305Z,21.6
2017-01-31T03:57:00.834Z,21.58
2017-01-31T03:57:41.412Z,21.59
2017-01-31T03:58:21.927Z,21.66
2017-01-31T03:59:02.465Z,21.62
2017-01-31T03:59:42.984Z,21.6
2017-01-31T04:00:23.535Z,21.68
2017-01-31T04:01:04.076Z,21.6
2017-01-31T04:01:44.614Z,21.6
2017-01-31T04:02:25.153Z,21.59
2017-01-31T04:03:05.739Z,21.62
2017-01-31T04:03:46.284Z,21.65
2017-01-31T04:04:26.819Z,21.63
2017-01-31T04:05:07.325Z,21.6
2017-01-31T04:05:47.887Z,21.66
2017-01-31T04:06:28.444Z,21.63
2017-01-31T04:07:08.982Z,21.58
2017-01-31T04:07:49.516Z,21.58
2017-01-31T04:08:30.065Z,21.66
2017-01-31T04:09:10.589Z,21.59
2017-01-31T04:09:51.146Z,21.59
2017-01-31T04:10:31.706Z,21.62
2017-01-31T04:11:12.294Z,21.59
2017-01-31T04:11:52.843Z,21.59
2017-01-31T04:12:33.380Z,21.58
2017-01-31T04:13:13.936Z,21.6
2017-01-31T04:13:54.484Z,21.58
2017-01-31T04:14:35.040Z,21.62
2017-01-31T04:15:15.608Z,21.59
2017-01-31T04:15:56.142Z,21.62
2017-01-31T04:16:36.663Z,21.56
2017-01-31T04:17:17.201Z,21.62
2017-01-31T04:17:57.751Z,21.63
2017-01-31T04:18:38.259Z,21.62
2017-01-31T04:19:18.800Z,21.63
2017-01-31T04:19:59.361Z,21.63
2017-01-31T04:20:39.912Z,21.6
2017-01-31T04:21:20.486Z,21.59
2017-01-31T04:22:01.022Z,21.63
2017-01-31T04:22:41.553Z,21.6
2017-01-31T04:23:22.136Z,21.63
2017-01-31T04:24:02.690Z,21.65
2017-01-31T04:24:43.252Z,21.6
2017-01-31T04:25:23.790Z,21.58
2017-01-31T04:26:04.346Z,21.6
2017-01-31T04:26:44.902Z,21.59
2017-01-31T04:27:25.444Z,21.59
2017-01-31T04:28:05.978Z,21.59
2017-01-31T04:28:46.504Z,21.59
2017-01-31T04:29:27.029Z,21.58
2017-01-31T04:30:07.551Z,21.6
2017-01-31T04:30:48.066Z,21.53
2017-01-31T04:31:28.592Z,21.59
2017-01-31T04:32:09.134Z,21.59
2017-01-31T04:32:49.665Z,21.63
2017-01-31T04:33:30.189Z,21.58
2017-01-31T04:34:10.739Z,21.6
2017-01-31T04:34:51.290Z,21.6
2017-01-31T04:35:31.797Z,21.59
2017-01-31T04:36:12.316Z,21.65
2017-01-31T04:36:52.840Z,21.6
2017-01-31T04:37:33.386Z,21.58
2017-01-31T04:38:13.911Z,21.58
2017-01-31T04:38:54.452Z,21.58
2017-01-31T04:39:35.000Z,21.66
2017-01-31T04:40:15.551Z,21.62
2017-01-31T04:40:56.078Z,21.58
2017-01-31T04:41:36.632Z,21.66
2017-01-31T04:42:17.148Z,21.54
2017-01-31T04:42:57.675Z,21.58
2017-01-31T04:43:38.206Z,21.54
2017-01-31T04:44:18.727Z,21.62
2017-01-31T04:44:59.282Z,21.6
2017-01-31T04:45:39.817Z,21.63
2017-01-31T04:46:20.367Z,21.59
2017-01-31T04:47:00.879Z,21.59
2017-01-31T04:47:41.417Z,21.62
2017-01-31T04:48:21.928Z,21.59
2017-01-31T04:49:02.462Z,21.58
2017-01-31T04:49:43.014Z,21.6
2017-01-31T04:50:23.541Z,21.51
2017-01-31T04:51:04.069Z,21.62
2017-01-31T04:51:44.643Z,21.63
2017-01-31T04:52:25.161Z,21.65
2017-01-31T04:53:05.734Z,21.59
2017-01-31T04:53:46.276Z,21.59
2017-01-31T04:54:26.789Z,21.62
2017-01-31T04:55:07.322Z,21.59
2017-01-31T04:55:47.874Z,21.63
2017-01-31T04:56:28.407Z,21.63
2017-01-31T04:57:08.935Z,21.63
2017-01-31T04:57:49.476Z,21.59
2017-01-31T04:58:30.008Z,21.59
2017-01-31T04:59:10.540Z,21.59
2017-01-31T04:59:51.065Z,21.62
2017-01-31T05:00:31.626Z,21.63
2017-01-31T05:01:12.157Z,21.63
2017-01-31T05:01:52.696Z,21.6
2017-01-31T05:02:33.246Z,21.6
2017-01-31T05:03:13.817Z,21.63
2017-01-31T05:03:54.320Z,21.59
2017-01-31T05:04:34.844Z,21.58
2017-01-31T05:05:15.375Z,21.62
2017-01-31T05:05:55.913Z,21.58
2017-01-31T05:06:36.430Z,21.63
2017-01-31T05:07:16.981Z,21.6
2017-01-31T05:07:57.536Z,21.63
2017-01-31T05:08:38.083Z,21.59
2017-01-31T05:09:18.638Z,21.62
2017-01-31T05:09:59.243Z,21.56
2017-01-31T05:10:39.809Z,21.54
2017-01-31T05:11:20.335Z,21.58
2017-01-31T05:12:00.867Z,21.59
2017-01-31T05:12:41.440Z,21.54
2017-01-31T05:13:21.982Z,21.6
2017-01-31T05:14:02.528Z,21.59
2017-01-31T05:14:43.047Z,21.65
2017-01-31T05:15:23.585Z,21.58
2017-01-31T05:16:04.148Z,21.6
2017-01-31T05:16:44.716Z,21.56
2017-01-31T05:17:25.283Z,21.58
2017-01-31T05:18:05.801Z,21.6
2017-01-31T05:18:46.352Z,21.59
2017-01-31T05:19:26.892Z,21.56
2017-01-31T05:20:07.444Z,21.53
2017-01-31T05:20:47.992Z,21.6
2017-01-31T05:21:28.554Z,21.56
2017-01-31T05:22:09.086Z,21.54
2017-01-31T05:22:49.655Z,21.54
2017-01-31T05:23:30.200Z,21.5
2017-01-31T05:24:10.755Z,21.6
2017-01-31T05:24:51.278Z,21.56
2017-01-31T05:25:31.807Z,21.58
2017-01-31T05:26:12.340Z,21.58
2017-01-31T05:26:52.867Z,21.6
2017-01-31T05:27:33.424Z,21.6
2017-01-31T05:28:13.951Z,21.5
2017-01-31T05:28:54.495Z,21.59
2017-01-31T05:29:35.021Z,21.6
2017-01-31T05:30:15.562Z,21.48
2017-01-31T05:30:56.076Z,21.53
2017-01-31T05:31:36.638Z,21.5
2017-01-31T05:32:17.177Z,21.56
2017-01-31T05:32:57.723Z,21.56
2017-01-31T05:33:38.227Z,21.54
2017-01-31T05:34:18.753Z,21.51
2017-01-31T05:34:59.306Z,21.56
2017-01-31T05:35:39.854Z,21.53
2017-01-31T05:36:20.391Z,21.51
2017-01-31T05:37:00.930Z,21.56
2017-01-31T05:37:41.490Z,21.54
2017-01-31T05:38:22.043Z,21.58
2017-01-31T05:39:02.573Z,21.62
2017-01-31T05:39:43.116Z,21.58
2017-01-31T05:40:23.694Z,21.53
2017-01-31T05:41:04.218Z,21.48
2017-01-31T05:41:44.749Z,21.53
2017-01-31T05:42:25.299Z,21.6
2017-01-31T05:43:05.844Z,21.51
2017-01-31T05:43:46.401Z,21.53
2017-01-31T05:44:26.990Z,21.51
2017-01-31T05:45:07.522Z,21.6
2017-01-31T05:45:48.107Z,21.54
2017-01-31T05:46:28.629Z,21.5
2017-01-31T05:47:09.164Z,21.54
2017-01-31T05:47:49.701Z,21.58
2017-01-31T05:48:30.228Z,21.58
2017-01-31T05:49:10.757Z,21.51
2017-01-31T05:49:51.328Z,21.48
2017-01-31T05:50:31.855Z,21.6
2017-01-31T05:51:12.404Z,21.62
2017-01-31T05:51:52.965Z,21.51
2017-01-31T05:52:33.489Z,21.45
2017-01-31T05:53:14.054Z,21.48
2017-01-31T05:53:54.571Z,21.56
2017-01-31T05:54:35.102Z,21.6
2017-01-31T05:55:15.657Z,21.63
2017-01-31T05:55:56.214Z,21.45
2017-01-31T05:56:36.760Z,21.51
2017-01-31T05:57:17.303Z,21.5
2017-01-31T05:57:57.830Z,21.51
2017-01-31T05:58:38.359Z,21.6
2017-01-31T05:59:18.909Z,21.51
2017-01-31T05:59:59.490Z,21.62
2017-01-31T06:00:40.025Z,21.53
2017-01-31T06:01:20.555Z,21.59
2017-01-31T06:02:01.082Z,21.56
2017-01-31T06:02:41.644Z,21.53
2017-01-31T06:03:22.178Z,21.62
2017-01-31T06:04:02.756Z,21.54
2017-01-31T06:04:43.270Z,21.5
2017-01-31T06:05:23.858Z,21.58
2017-01-31T06:06:04.365Z,21.58
2017-01-31T06:06:44.940Z,21.59
2017-01-31T06:07:25.435Z,21.58
2017-01-31T06:08:05.967Z,21.54
2017-01-31T06:08:46.515Z,21.51
2017-01-31T06:09:27.091Z,21.53
2017-01-31T06:10:07.658Z,21.62
2017-01-31T06:10:48.202Z,21.56
2017-01-31T06:11:28.805Z,21.53
2017-01-31T06:12:09.340Z,21.51
2017-01-31T06:12:49.915Z,21.6
2017-01-31T06:13:30.476Z,21.6
2017-01-31T06:14:11.048Z,21.56
2017-01-31T06:14:51.609Z,21.58
2017-01-31T06:15:32.153Z,21.59
2017-01-31T06:16:12.715Z,21.6
2017-01-31T06:16:53.279Z,21.6
2017-01-31T06:17:33.834Z,21.59
2017-01-31T06:18:14.415Z,21.5
2017-01-31T06:18:55.037Z,21.47
2017-01-31T06:19:35.548Z,21.53
2017-01-31T06:20:16.095Z,21.48
2017-01-31T06:20:56.613Z,21.45
2017-01-31T06:21:37.157Z,21.51
2017-01-31T06:22:17.688Z,21.48
2017-01-31T06:22:58.225Z,21.53
2017-01-31T06:23:38.767Z,21.54
2017-01-31T06:24:19.336Z,21.56
2017-01-31T06:24:59.875Z,21.58
2017-01-31T06:25:40.441Z,21.5
2017-01-31T06:26:20.965Z,21.6
2017-01-31T06:27:01.596Z,21.58
2017-01-31T06:27:42.183Z,21.45
2017-01-31T06:28:22.752Z,21.54
2017-01-31T06:29:03.359Z,21.59
2017-01-31T06:29:43.940Z,21.58
2017-01-31T06:30:24.522Z,21.51
2017-01-31T06:31:05.062Z,21.54
2017-01-31T06:31:45.582Z,21.56
2017-01-31T06:32:26.120Z,21.45
2017-01-31T06:33:06.667Z,21.54
2017-01-31T06:33:47.212Z,21.51
2017-01-31T06:34:27.758Z,21.48
2017-01-31T06:35:08.281Z,21.51
2017-01-31T06:35:48.819Z,21.51
2017-01-31T06:36:29.363Z,21.51
2017-01-31T06:37:09.921Z,21.54
2017-01-31T06:37:50.426Z,21.48
2017-01-31T06:38:31.005Z,21.51
2017-01-31T06:39:11.546Z,21.51
2017-01-31T06:39:52.092Z,21.53
2017-01-31T06:40:32.637Z,21.51
2017-01-31T06:41:13.176Z,21.51
2017-01-31T06:41:53.687Z,21.48
2017-01-31T06:42:34.223Z,21.51
2017-01-31T06:43:14.763Z,21.51
2017-01-31T06:43:55.308Z,21.5
2017-01-31T06:44:35.850Z,21.47
2017-01-31T06:45:16.397Z,21.58
2017-01-31T06:45:56.962Z,21.53
2017-01-31T06:46:37.509Z,21.51
2017-01-31T06:47:18.057Z,21.51
2017-01-31T06:47:58.567Z,21.47
2017-01-31T06:48:39.113Z,21.5
2017-01-31T06:49:19.675Z,21.51
2017-01-31T06:50:00.214Z,21.51
2017-01-31T06:50:40.753Z,21.47
2017-01-31T06:51:21.348Z,21.47
2017-01-31T06:52:01.875Z,21.47
2017-01-31T06:52:42.439Z,21.51
2017-01-31T06:53:22.987Z,21.47
2017-01-31T06:54:03.546Z,21.48
2017-01-31T06:54:44.082Z,21.51
2017-01-31T06:55:24.607Z,21.47
2017-01-31T06:56:05.104Z,21.47
2017-01-31T06:56:45.632Z,21.5
2017-01-31T06:57:26.177Z,21.45
2017-01-31T06:58:06.734Z,21.5
2017-01-31T06:58:47.236Z,21.47
2017-01-31T06:59:27.785Z,21.5
2017-01-31T07:00:08.300Z,21.51
2017-01-31T07:00:48.863Z,21.48
2017-01-31T07:01:29.423Z,21.56
2017-01-31T07:02:09.930Z,21.5
2017-01-31T07:02:50.490Z,21.51
2017-01-31T07:03:31.015Z,21.5
2017-01-31T07:04:11.534Z,21.47
2017-01-31T07:04:52.073Z,21.53
2017-01-31T07:05:32.641Z,21.5
2017-01-31T07:06:13.188Z,21.47
2017-01-31T07:06:53.739Z,21.51
2017-01-31T07:07:34.260Z,21.54
2017-01-31T07:08:14.787Z,21.51
2017-01-31T07:08:55.335Z,21.45
2017-01-31T07:09:35.889Z,21.58
2017-01-31T07:10:16.393Z,21.51
2017-01-31T07:10:56.972Z,21.51
2017-01-31T07:11:37.525Z,21.45
2017-01-31T07:12:18.059Z,21.51
2017-01-31T07:12:58.607Z,21.51
2017-01-31T07:13:39.153Z,21.48
2017-01-31T07:14:19.684Z,21.54
2017-01-31T07:15:00.201Z,21.47
2017-01-31T07:15:40.749Z,21.54
2017-01-31T07:16:21.280Z,21.5
2017-01-31T07:17:01.820Z,21.5
2017-01-31T07:17:42.339Z,21.63
2017-01-31T07:18:22.896Z,21.54
2017-01-31T07:19:03.459Z,21.51
2017-01-31T07:19:43.992Z,21.51
2017-01-31T07:20:24.533Z,21.47
2017-01-31T07:21:05.067Z,21.51
2017-01-31T07:21:45.596Z,21.45
2017-01-31T07:22:26.140Z,21.48
2017-01-31T07:23:06.655Z,21.47
2017-01-31T07:23:47.179Z,21.59
2017-01-31T07:24:27.717Z,21.53
2017-01-31T07:25:08.247Z,21.53
2017-01-31T07:25:48.839Z,21.51
2017-01-31T07:26:29.329Z,21.48
2017-01-31T07:27:09.848Z,21.44
2017-01-31T07:27:50.378Z,21.51
2017-01-31T07:28:30.906Z,21.51
2017-01-31T07:29:11.415Z,21.5
2017-01-31T07:29:51.956Z,21.5
2017-01-31T07:30:32.520Z,21.51
2017-01-31T07:31:13.038Z,21.47
2017-01-31T07:31:53.571Z,21.5
2017-01-31T07:32:34.123Z,21.54
2017-01-31T07:33:14.643Z,21.47
2017-01-31T07:33:55.187Z,21.53
2017-01-31T07:34:35.702Z,21.45
2017-01-31T07:35:16.243Z,21.5
2017-01-31T07:35:56.761Z,21.5
2017-01-31T07:36:37.301Z,21.45
2017-01-31T07:37:17.848Z,21.47
2017-01-31T07:37:58.352Z,21.48
2017-01-31T07:38:38.871Z,21.51
2017-01-31T07:39:19.415Z,21.47
2017-01-31T07:39:59.949Z,21.5
2017-01-31T07:40:40.465Z,21.5
2017-01-31T07:41:20.983Z,21.51
2017-01-31T07:42:01.501Z,21.48
2017-01-31T07:42:42.039Z,21.51
2017-01-31T07:43:22.562Z,21.53
2017-01-31T07:44:03.114Z,21.54
2017-01-31T07:44:43.659Z,21.47
2017-01-31T07:45:24.196Z,21.5
2017-01-31T07:46:04.730Z,21.51
2017-01-31T07:46:45.303Z,21.54
2017-01-31T07:47:25.821Z,21.45
2017-01-31T07:48:06.338Z,21.48
2017-01-31T07:48:46.891Z,21.51
2017-01-31T07:49:27.468Z,21.5
2017-01-31T07:50:07.996Z,21.53
2017-01-31T07:50:48.558Z,21.5
2017-01-31T07:51:29.086Z,21.47
2017-01-31T07:52:09.609Z,21.53
2017-01-31T07:52:50.155Z,21.47
2017-01-31T07:53:30.714Z,21.45
2017-01-31T07:54:11.220Z,21.43
2017-01-31T07:54:51.767Z,21.45
2017-01-31T07:55:32.309Z,21.47
2017-01-31T07:56:12.849Z,21.45
2017-01-31T07:56:53.371Z,21.5
2017-01-31T07:57:33.932Z,21.47
2017-01-31T07:58:14.464Z,21.47
2017-01-31T07:58:54.994Z,21.5
2017-01-31T07:59:35.524Z,21.47
2017-01-31T08:00:16.044Z,21.47
2017-01-31T08:00:56.577Z,21.5
2017-01-31T08:01:37.108Z,21.47
2017-01-31T08:02:17.626Z,21.47
2017-01-31T08:02:58.168Z,21.53
2017-01-31T08:03:38.671Z,21.47
2017-01-31T08:04:19.192Z,21.5
2017-01-31T08:04:59.773Z,21.5
2017-01-31T08:05:40.314Z,21.51
2017-01-31T08:06:20.884Z,21.5
2017-01-31T08:07:01.401Z,21.51
2017-01-31T08:07:41.924Z,21.51
2017-01-31T08:08:22.455Z,21.47
2017-01-31T08:09:02.985Z,21.5
2017-01-31T08:09:43.483Z,21.48
2017-01-31T08:10:24.033Z,21.5
2017-01-31T08:11:04.614Z,21.51
2017-01-31T08:11:45.225Z,21.53
2017-01-31T08:12:25.729Z,21.47
2017-01-31T08:13:06.269Z,21.47
2017-01-31T08:13:46.784Z,21.51
2017-01-31T08:14:27.334Z,21.47
2017-01-31T08:15:07.868Z,21.5
2017-01-31T08:15:48.395Z,21.5
2017-01-31T08:16:28.925Z,21.5
2017-01-31T08:17:09.468Z,21.5
2017-01-31T08:17:49.998Z,21.5
2017-01-31T08:18:30.545Z,21.53
2017-01-31T08:19:11.070Z,21.45
2017-01-31T08:19:51.620Z,21.44
2017-01-31T08:20:32.174Z,21.48
2017-01-31T08:21:12.713Z,21.47
2017-01-31T08:21:53.246Z,21.47
2017-01-31T08:22:33.816Z,21.5
2017-01-31T08:23:14.323Z,21.5
2017-01-31T08:23:54.840Z,21.5
2017-01-31T08:24:35.364Z,21.51
2017-01-31T08:25:15.898Z,21.47
2017-01-31T08:25:56.446Z,21.54
2017-01-31T08:26:36.984Z,21.51
2017-01-31T08:27:17.526Z,21.47
2017-01-31T08:27:58.062Z,21.5
2017-01-31T08:28:38.607Z,21.5
2017-01-31T08:29:19.133Z,21.51
2017-01-31T08:29:59.695Z,21.51
2017-01-31T08:30:40.238Z,21.51
2017-01-31T08:31:20.750Z,21.5
2017-01-31T08:32:01.296Z,21.45
2017-01-31T08:32:41.852Z,21.47
2017-01-31T08:33:22.431Z,21.47
2017-01-31T08:34:02.945Z,21.54
2017-01-31T08:34:43.485Z,21.45
2017-01-31T08:35:24.022Z,21.5
2017-01-31T08:36:04.559Z,21.47
2017-01-31T08:36:45.093Z,21.5
2017-01-31T08:37:25.638Z,21.54
2017-01-31T08:38:06.166Z,21.51
2017-01-31T08:38:46.693Z,21.47
2017-01-31T08:39:27.225Z,21.5
2017-01-31T08:40:07.755Z,21.47
2017-01-31T08:40:48.294Z,21.51
2017-01-31T08:41:28.872Z,21.47
2017-01-31T08:42:09.409Z,21.47
2017-01-31T08:42:49.958Z,21.47
2017-01-31T08:43:30.523Z,21.48
2017-01-31T08:44:11.044Z,21.47
2017-01-31T08:44:51.601Z,21.45
2017-01-31T08:45:32.163Z,21.51
2017-01-31T08:46:12.703Z,21.51
2017-01-31T08:46:53.288Z,21.48